sensor_id;sensor_type;location;lat;lon;timestamp;P1;durP1;ratioP1;P2;durP2;ratioP2
21550;SDS011;10936;49.836;7.078;2023-04-24T05:02:16;21.43;;;14.70;;
21550;SDS011;10936;49.836;7.078;2023-04-24T05:04:42;27.90;;;15.40;;
21550;SDS011;10936;49.836;7.078;2023-04-24T05:07:08;23.93;;;13.50;;
21550;SDS011;10936;49.836;7.078;2023-04-24T05:09:33;15.93;;;11.17;;
21550;SDS011;10936;49.836;7.078;2023-04-24T05:11:59;21.63;;;12.17;;
21550;SDS011;10936;49.836;7.078;2023-04-24T05:14:25;19.97;;;12.70;;
21550;SDS011;10936;49.836;7.078;2023-04-24T05:16:51;15.33;;;10.87;;
21550;SDS011;10936;49.836;7.078;2023-04-24T05:19:16;19.17;;;10.87;;
21550;SDS011;10936;49.836;7.078;2023-04-24T05:21:42;15.13;;;9.97;;
21550;SDS011;10936;49.836;7.078;2023-04-24T05:24:07;13.70;;;9.33;;
21550;SDS011;10936;49.836;7.078;2023-04-24T05:26:33;15.50;;;9.17;;
21550;SDS011;10936;49.836;7.078;2023-04-24T05:29:00;12.93;;;9.63;;
21550;SDS011;10936;49.836;7.078;2023-04-24T05:31:26;15.60;;;9.87;;
21550;SDS011;10936;49.836;7.078;2023-04-24T05:33:51;12.73;;;9.23;;
21550;SDS011;10936;49.836;7.078;2023-04-24T05:36:17;16.67;;;9.30;;
21550;SDS011;10936;49.836;7.078;2023-04-24T05:38:42;13.73;;;9.07;;
21550;SDS011;10936;49.836;7.078;2023-04-24T05:41:08;12.67;;;9.10;;
21550;SDS011;10936;49.836;7.078;2023-04-24T05:43:33;11.97;;;8.27;;
21550;SDS011;10936;49.836;7.078;2023-04-24T05:45:59;11.87;;;8.70;;
21550;SDS011;10936;49.836;7.078;2023-04-24T05:48:25;12.00;;;9.00;;
21550;SDS011;10936;49.836;7.078;2023-04-24T05:50:50;13.53;;;8.60;;
21550;SDS011;10936;49.836;7.078;2023-04-24T05:53:17;12.80;;;8.73;;
21550;SDS011;10936;49.836;7.078;2023-04-24T05:55:43;11.90;;;8.07;;
21550;SDS011;10936;49.836;7.078;2023-04-24T05:58:09;15.00;;;8.97;;
21550;SDS011;10936;49.836;7.078;2023-04-24T06:00:35;13.97;;;9.20;;
21550;SDS011;10936;49.836;7.078;2023-04-24T06:03:00;14.60;;;7.97;;
21550;SDS011;10936;49.836;7.078;2023-04-24T06:05:28;11.17;;;8.60;;
21550;SDS011;10936;49.836;7.078;2023-04-24T06:07:54;12.17;;;8.23;;
21550;SDS011;10936;49.836;7.078;2023-04-24T06:10:20;10.20;;;7.13;;
21550;SDS011;10936;49.836;7.078;2023-04-24T06:12:46;8.53;;;6.00;;
21550;SDS011;10936;49.836;7.078;2023-04-24T06:15:12;8.77;;;6.30;;
21550;SDS011;10936;49.836;7.078;2023-04-24T06:17:37;10.77;;;6.00;;
21550;SDS011;10936;49.836;7.078;2023-04-24T06:20:03;9.60;;;6.83;;
21550;SDS011;10936;49.836;7.078;2023-04-24T06:22:30;9.27;;;6.93;;
21550;SDS011;10936;49.836;7.078;2023-04-24T06:24:56;9.47;;;7.10;;
21550;SDS011;10936;49.836;7.078;2023-04-24T06:27:21;11.03;;;7.67;;
21550;SDS011;10936;49.836;7.078;2023-04-24T06:29:47;10.90;;;7.47;;
21550;SDS011;10936;49.836;7.078;2023-04-24T06:32:19;11.97;;;7.73;;
21550;SDS011;10936;49.836;7.078;2023-04-24T06:34:48;10.83;;;7.33;;
21550;SDS011;10936;49.836;7.078;2023-04-24T06:37:15;11.20;;;7.03;;
21550;SDS011;10936;49.836;7.078;2023-04-24T06:39:41;11.00;;;7.40;;
21550;SDS011;10936;49.836;7.078;2023-04-24T06:42:07;11.57;;;7.40;;
21550;SDS011;10936;49.836;7.078;2023-04-24T06:44:34;11.40;;;7.03;;
21550;SDS011;10936;49.836;7.078;2023-04-24T06:47:05;12.17;;;6.80;;
21550;SDS011;10936;49.836;7.078;2023-04-24T06:49:35;10.17;;;7.40;;
21550;SDS011;10936;49.836;7.078;2023-04-24T06:52:01;10.33;;;8.00;;
21550;SDS011;10936;49.836;7.078;2023-04-24T06:54:26;10.93;;;7.70;;
21550;SDS011;10936;49.836;7.078;2023-04-24T06:56:52;13.13;;;7.20;;
21550;SDS011;10936;49.836;7.078;2023-04-24T06:59:18;9.67;;;6.73;;
21550;SDS011;10936;49.836;7.078;2023-04-24T07:01:43;11.63;;;7.70;;
21550;SDS011;10936;49.836;7.078;2023-04-24T07:04:09;12.00;;;7.23;;
21550;SDS011;10936;49.836;7.078;2023-04-24T07:06:35;9.50;;;6.50;;
21550;SDS011;10936;49.836;7.078;2023-04-24T07:09:00;8.20;;;6.30;;
21550;SDS011;10936;49.836;7.078;2023-04-24T07:11:26;9.90;;;6.23;;
21550;SDS011;10936;49.836;7.078;2023-04-24T07:13:54;10.93;;;6.77;;
21550;SDS011;10936;49.836;7.078;2023-04-24T07:16:20;9.33;;;6.63;;
21550;SDS011;10936;49.836;7.078;2023-04-24T07:18:46;13.63;;;7.10;;
21550;SDS011;10936;49.836;7.078;2023-04-24T07:21:11;9.70;;;6.60;;
21550;SDS011;10936;49.836;7.078;2023-04-24T07:23:37;12.00;;;6.80;;
21550;SDS011;10936;49.836;7.078;2023-04-24T07:26:02;8.67;;;6.53;;
21550;SDS011;10936;49.836;7.078;2023-04-24T07:28:28;11.30;;;7.53;;
21550;SDS011;10936;49.836;7.078;2023-04-24T07:30:57;12.17;;;7.00;;
21550;SDS011;10936;49.836;7.078;2023-04-24T07:33:24;10.93;;;7.10;;
21550;SDS011;10936;49.836;7.078;2023-04-24T07:35:50;11.37;;;6.73;;
21550;SDS011;10936;49.836;7.078;2023-04-24T07:38:16;13.23;;;7.70;;
21550;SDS011;10936;49.836;7.078;2023-04-24T07:40:45;12.00;;;6.77;;
21550;SDS011;10936;49.836;7.078;2023-04-24T07:43:10;11.73;;;6.87;;
21550;SDS011;10936;49.836;7.078;2023-04-24T07:45:36;14.03;;;7.60;;
21550;SDS011;10936;49.836;7.078;2023-04-24T07:48:02;11.53;;;7.60;;
21550;SDS011;10936;49.836;7.078;2023-04-24T07:50:28;8.07;;;6.80;;
21550;SDS011;10936;49.836;7.078;2023-04-24T07:52:54;9.63;;;6.53;;
21550;SDS011;10936;49.836;7.078;2023-04-24T07:55:19;11.17;;;7.40;;
21550;SDS011;10936;49.836;7.078;2023-04-24T07:57:45;11.77;;;7.87;;
21550;SDS011;10936;49.836;7.078;2023-04-24T08:00:11;11.40;;;7.80;;
21550;SDS011;10936;49.836;7.078;2023-04-24T08:02:37;12.07;;;7.17;;
21550;SDS011;10936;49.836;7.078;2023-04-24T08:05:02;11.87;;;7.20;;
21550;SDS011;10936;49.836;7.078;2023-04-24T08:07:28;8.47;;;6.30;;
21550;SDS011;10936;49.836;7.078;2023-04-24T08:09:54;13.30;;;6.70;;
21550;SDS011;10936;49.836;7.078;2023-04-24T08:12:20;11.70;;;6.80;;
21550;SDS011;10936;49.836;7.078;2023-04-24T08:14:45;12.30;;;6.87;;
21550;SDS011;10936;49.836;7.078;2023-04-24T08:17:11;9.70;;;6.20;;
21550;SDS011;10936;49.836;7.078;2023-04-24T08:19:36;8.47;;;6.03;;
21550;SDS011;10936;49.836;7.078;2023-04-24T08:22:02;9.37;;;5.90;;
21550;SDS011;10936;49.836;7.078;2023-04-24T08:24:29;9.87;;;6.10;;
21550;SDS011;10936;49.836;7.078;2023-04-24T08:26:54;9.37;;;5.37;;
21550;SDS011;10936;49.836;7.078;2023-04-24T08:29:22;7.13;;;5.37;;
21550;SDS011;10936;49.836;7.078;2023-04-24T08:31:48;6.77;;;5.50;;
21550;SDS011;10936;49.836;7.078;2023-04-24T08:34:13;8.33;;;6.37;;
21550;SDS011;10936;49.836;7.078;2023-04-24T08:36:39;9.93;;;6.20;;
21550;SDS011;10936;49.836;7.078;2023-04-24T08:39:05;12.33;;;5.97;;
21550;SDS011;10936;49.836;7.078;2023-04-24T08:41:31;9.47;;;6.73;;
21550;SDS011;10936;49.836;7.078;2023-04-24T08:44:01;8.30;;;6.33;;
21550;SDS011;10936;49.836;7.078;2023-04-24T08:46:27;11.37;;;6.30;;
21550;SDS011;10936;49.836;7.078;2023-04-24T08:48:54;9.17;;;6.80;;
21550;SDS011;10936;49.836;7.078;2023-04-24T08:51:21;9.87;;;7.13;;
21550;SDS011;10936;49.836;7.078;2023-04-24T08:53:49;8.90;;;5.97;;
21550;SDS011;10936;49.836;7.078;2023-04-24T08:56:17;11.43;;;6.60;;
21550;SDS011;10936;49.836;7.078;2023-04-24T08:58:42;13.33;;;6.57;;
21550;SDS011;10936;49.836;7.078;2023-04-24T09:01:08;12.80;;;6.57;;
21550;SDS011;10936;49.836;7.078;2023-04-24T09:03:34;9.17;;;7.00;;
21550;SDS011;10936;49.836;7.078;2023-04-24T09:06:00;9.43;;;7.20;;
21550;SDS011;10936;49.836;7.078;2023-04-24T09:08:27;11.60;;;7.43;;
21550;SDS011;10936;49.836;7.078;2023-04-24T09:10:54;11.57;;;6.93;;
21550;SDS011;10936;49.836;7.078;2023-04-24T09:13:20;10.70;;;7.17;;
21550;SDS011;10936;49.836;7.078;2023-04-24T09:15:46;11.43;;;7.90;;
21550;SDS011;10936;49.836;7.078;2023-04-24T09:18:12;12.13;;;7.70;;
21550;SDS011;10936;49.836;7.078;2023-04-24T09:21:00;9.70;;;7.10;;
21550;SDS011;10936;49.836;7.078;2023-04-24T09:23:31;10.93;;;6.97;;
21550;SDS011;10936;49.836;7.078;2023-04-24T09:25:58;10.10;;;6.10;;
21550;SDS011;10936;49.836;7.078;2023-04-24T09:28:46;9.63;;;7.43;;
21550;SDS011;10936;49.836;7.078;2023-04-24T09:31:14;12.00;;;7.23;;
21550;SDS011;10936;49.836;7.078;2023-04-24T09:36:37;6.83;;;5.60;;
21550;SDS011;10936;49.836;7.078;2023-04-24T09:39:10;7.83;;;5.80;;
21550;SDS011;10936;49.836;7.078;2023-04-24T09:41:45;13.87;;;7.23;;
21550;SDS011;10936;49.836;7.078;2023-04-24T09:44:16;9.33;;;6.70;;
21550;SDS011;10936;49.836;7.078;2023-04-24T09:46:45;10.40;;;6.70;;
21550;SDS011;10936;49.836;7.078;2023-04-24T09:49:16;9.73;;;6.00;;
21550;SDS011;10936;49.836;7.078;2023-04-24T09:51:46;9.67;;;7.17;;
21550;SDS011;10936;49.836;7.078;2023-04-24T09:54:19;10.83;;;6.73;;
21550;SDS011;10936;49.836;7.078;2023-04-24T09:56:46;7.20;;;5.30;;
21550;SDS011;10936;49.836;7.078;2023-04-24T09:59:13;12.33;;;5.77;;
21550;SDS011;10936;49.836;7.078;2023-04-24T10:01:39;9.90;;;5.80;;
21550;SDS011;10936;49.836;7.078;2023-04-24T10:04:14;14.33;;;7.57;;
21550;SDS011;10936;49.836;7.078;2023-04-24T10:06:48;9.13;;;6.50;;
21550;SDS011;10936;49.836;7.078;2023-04-24T10:09:15;9.60;;;6.80;;
21550;SDS011;10936;49.836;7.078;2023-04-24T10:11:46;10.23;;;7.30;;
21550;SDS011;10936;49.836;7.078;2023-04-24T10:14:14;10.93;;;7.63;;
21550;SDS011;10936;49.836;7.078;2023-04-24T10:16:40;9.50;;;6.93;;
21550;SDS011;10936;49.836;7.078;2023-04-24T10:19:07;7.97;;;5.93;;
21550;SDS011;10936;49.836;7.078;2023-04-24T10:21:33;11.47;;;5.70;;
21550;SDS011;10936;49.836;7.078;2023-04-24T10:24:00;9.03;;;5.70;;
21550;SDS011;10936;49.836;7.078;2023-04-24T10:26:28;8.33;;;5.67;;
21550;SDS011;10936;49.836;7.078;2023-04-24T10:28:54;9.77;;;5.70;;
21550;SDS011;10936;49.836;7.078;2023-04-24T10:31:23;11.80;;;6.57;;
21550;SDS011;10936;49.836;7.078;2023-04-24T10:33:49;10.20;;;5.97;;
21550;SDS011;10936;49.836;7.078;2023-04-24T10:36:16;9.57;;;6.67;;
21550;SDS011;10936;49.836;7.078;2023-04-24T10:38:42;11.77;;;7.57;;
21550;SDS011;10936;49.836;7.078;2023-04-24T10:41:11;11.03;;;6.80;;
21550;SDS011;10936;49.836;7.078;2023-04-24T10:43:44;10.00;;;6.63;;
21550;SDS011;10936;49.836;7.078;2023-04-24T10:46:10;11.07;;;7.27;;
21550;SDS011;10936;49.836;7.078;2023-04-24T10:48:44;11.33;;;6.67;;
21550;SDS011;10936;49.836;7.078;2023-04-24T10:51:19;13.37;;;7.50;;
21550;SDS011;10936;49.836;7.078;2023-04-24T10:53:47;12.50;;;7.00;;
21550;SDS011;10936;49.836;7.078;2023-04-24T10:56:15;12.70;;;7.00;;
21550;SDS011;10936;49.836;7.078;2023-04-24T10:58:45;9.23;;;7.00;;
21550;SDS011;10936;49.836;7.078;2023-04-24T11:01:23;10.40;;;6.70;;
21550;SDS011;10936;49.836;7.078;2023-04-24T11:03:54;10.37;;;7.23;;
21550;SDS011;10936;49.836;7.078;2023-04-24T11:09:06;8.80;;;6.77;;
21550;SDS011;10936;49.836;7.078;2023-04-24T11:11:33;13.27;;;6.90;;
21550;SDS011;10936;49.836;7.078;2023-04-24T11:14:00;11.37;;;6.47;;
21550;SDS011;10936;49.836;7.078;2023-04-24T11:16:44;10.87;;;6.90;;
21550;SDS011;10936;49.836;7.078;2023-04-24T11:21:43;11.23;;;6.80;;
21550;SDS011;10936;49.836;7.078;2023-04-24T11:24:26;10.60;;;6.83;;
21550;SDS011;10936;49.836;7.078;2023-04-24T11:32:39;8.37;;;5.50;;
21550;SDS011;10936;49.836;7.078;2023-04-24T11:35:07;11.27;;;5.57;;
21550;SDS011;10936;49.836;7.078;2023-04-24T11:37:41;8.13;;;5.00;;
21550;SDS011;10936;49.836;7.078;2023-04-24T11:40:09;8.40;;;5.63;;
21550;SDS011;10936;49.836;7.078;2023-04-24T11:42:40;9.87;;;5.37;;
21550;SDS011;10936;49.836;7.078;2023-04-24T11:45:11;9.73;;;5.33;;
21550;SDS011;10936;49.836;7.078;2023-04-24T11:47:40;7.43;;;5.43;;
21550;SDS011;10936;49.836;7.078;2023-04-24T11:50:10;9.13;;;5.47;;
21550;SDS011;10936;49.836;7.078;2023-04-24T11:52:39;7.30;;;4.80;;
21550;SDS011;10936;49.836;7.078;2023-04-24T11:55:24;7.60;;;5.20;;
21550;SDS011;10936;49.836;7.078;2023-04-24T11:57:55;10.07;;;5.20;;
21550;SDS011;10936;49.836;7.078;2023-04-24T12:00:26;8.37;;;5.27;;
21550;SDS011;10936;49.836;7.078;2023-04-24T12:03:12;11.10;;;5.23;;
21550;SDS011;10936;49.836;7.078;2023-04-24T12:05:38;7.70;;;5.20;;
21550;SDS011;10936;49.836;7.078;2023-04-24T12:08:04;8.73;;;5.00;;
21550;SDS011;10936;49.836;7.078;2023-04-24T12:10:31;8.30;;;5.47;;
21550;SDS011;10936;49.836;7.078;2023-04-24T12:12:57;8.53;;;5.13;;
21550;SDS011;10936;49.836;7.078;2023-04-24T12:15:24;7.60;;;4.80;;
21550;SDS011;10936;49.836;7.078;2023-04-24T12:17:51;7.57;;;4.80;;
21550;SDS011;10936;49.836;7.078;2023-04-24T12:20:22;8.07;;;5.37;;
21550;SDS011;10936;49.836;7.078;2023-04-24T12:22:50;6.70;;;4.93;;
21550;SDS011;10936;49.836;7.078;2023-04-24T12:25:19;11.50;;;5.70;;
21550;SDS011;10936;49.836;7.078;2023-04-24T12:27:51;8.33;;;5.50;;
21550;SDS011;10936;49.836;7.078;2023-04-24T12:30:33;6.63;;;5.10;;
21550;SDS011;10936;49.836;7.078;2023-04-24T12:33:00;9.67;;;5.63;;
21550;SDS011;10936;49.836;7.078;2023-04-24T12:35:28;8.70;;;5.70;;
21550;SDS011;10936;49.836;7.078;2023-04-24T12:37:54;9.63;;;5.50;;
21550;SDS011;10936;49.836;7.078;2023-04-24T12:40:21;9.87;;;6.07;;
21550;SDS011;10936;49.836;7.078;2023-04-24T12:42:50;9.07;;;5.73;;
21550;SDS011;10936;49.836;7.078;2023-04-24T12:45:19;9.33;;;5.50;;
21550;SDS011;10936;49.836;7.078;2023-04-24T12:47:45;10.30;;;6.40;;
21550;SDS011;10936;49.836;7.078;2023-04-24T12:50:12;9.00;;;5.80;;
21550;SDS011;10936;49.836;7.078;2023-04-24T12:52:39;10.73;;;5.67;;
21550;SDS011;10936;49.836;7.078;2023-04-24T12:55:06;10.73;;;5.93;;
21550;SDS011;10936;49.836;7.078;2023-04-24T12:57:35;10.20;;;6.27;;
21550;SDS011;10936;49.836;7.078;2023-04-24T13:00:02;7.87;;;5.87;;
21550;SDS011;10936;49.836;7.078;2023-04-24T13:02:29;8.93;;;5.30;;
21550;SDS011;10936;49.836;7.078;2023-04-24T13:04:56;11.90;;;5.80;;
21550;SDS011;10936;49.836;7.078;2023-04-24T13:07:25;10.90;;;5.90;;
21550;SDS011;10936;49.836;7.078;2023-04-24T13:09:52;9.23;;;6.60;;
21550;SDS011;10936;49.836;7.078;2023-04-24T13:12:19;11.93;;;7.03;;
21550;SDS011;10936;49.836;7.078;2023-04-24T13:14:45;14.00;;;6.87;;
21550;SDS011;10936;49.836;7.078;2023-04-24T13:17:11;12.40;;;7.40;;
21550;SDS011;10936;49.836;7.078;2023-04-24T13:19:38;11.47;;;6.87;;
21550;SDS011;10936;49.836;7.078;2023-04-24T13:22:06;10.60;;;6.80;;
21550;SDS011;10936;49.836;7.078;2023-04-24T13:24:32;11.47;;;6.30;;
21550;SDS011;10936;49.836;7.078;2023-04-24T13:26:58;12.20;;;7.00;;
21550;SDS011;10936;49.836;7.078;2023-04-24T13:29:24;12.93;;;7.13;;
21550;SDS011;10936;49.836;7.078;2023-04-24T13:31:50;9.57;;;6.70;;
21550;SDS011;10936;49.836;7.078;2023-04-24T13:34:17;10.10;;;6.47;;
21550;SDS011;10936;49.836;7.078;2023-04-24T13:36:43;8.73;;;6.27;;
21550;SDS011;10936;49.836;7.078;2023-04-24T13:39:12;9.93;;;6.57;;
21550;SDS011;10936;49.836;7.078;2023-04-24T13:41:40;11.90;;;6.63;;
21550;SDS011;10936;49.836;7.078;2023-04-24T13:44:06;8.47;;;6.00;;
21550;SDS011;10936;49.836;7.078;2023-04-24T13:46:32;9.63;;;6.67;;
21550;SDS011;10936;49.836;7.078;2023-04-24T13:48:57;11.00;;;6.40;;
21550;SDS011;10936;49.836;7.078;2023-04-24T13:51:23;10.13;;;6.57;;
21550;SDS011;10936;49.836;7.078;2023-04-24T13:53:52;11.10;;;6.70;;
21550;SDS011;10936;49.836;7.078;2023-04-24T13:56:18;7.50;;;5.70;;
21550;SDS011;10936;49.836;7.078;2023-04-24T13:58:45;8.70;;;5.90;;
21550;SDS011;10936;49.836;7.078;2023-04-24T14:01:11;9.50;;;5.80;;
21550;SDS011;10936;49.836;7.078;2023-04-24T14:03:37;9.50;;;5.70;;
21550;SDS011;10936;49.836;7.078;2023-04-24T14:06:03;11.50;;;6.17;;
21550;SDS011;10936;49.836;7.078;2023-04-24T14:08:29;9.77;;;6.07;;
21550;SDS011;10936;49.836;7.078;2023-04-24T14:10:54;7.90;;;5.70;;
21550;SDS011;10936;49.836;7.078;2023-04-24T14:13:20;7.10;;;5.67;;
21550;SDS011;10936;49.836;7.078;2023-04-24T14:15:46;12.93;;;6.63;;
21550;SDS011;10936;49.836;7.078;2023-04-24T14:18:11;10.20;;;5.90;;
21550;SDS011;10936;49.836;7.078;2023-04-24T14:20:37;8.70;;;5.73;;
21550;SDS011;10936;49.836;7.078;2023-04-24T14:23:03;8.53;;;5.13;;
21550;SDS011;10936;49.836;7.078;2023-04-24T14:25:29;9.90;;;6.13;;
21550;SDS011;10936;49.836;7.078;2023-04-24T14:27:55;7.67;;;5.50;;
21550;SDS011;10936;49.836;7.078;2023-04-24T14:30:21;8.50;;;6.03;;
21550;SDS011;10936;49.836;7.078;2023-04-24T14:32:47;7.70;;;5.07;;
21550;SDS011;10936;49.836;7.078;2023-04-24T14:35:13;9.43;;;5.87;;
21550;SDS011;10936;49.836;7.078;2023-04-24T14:37:39;8.03;;;5.60;;
21550;SDS011;10936;49.836;7.078;2023-04-24T14:40:06;7.77;;;5.47;;
21550;SDS011;10936;49.836;7.078;2023-04-24T14:42:33;8.90;;;5.60;;
21550;SDS011;10936;49.836;7.078;2023-04-24T14:44:59;10.60;;;5.97;;
21550;SDS011;10936;49.836;7.078;2023-04-24T14:47:24;9.00;;;5.40;;
21550;SDS011;10936;49.836;7.078;2023-04-24T14:49:50;7.77;;;5.97;;
21550;SDS011;10936;49.836;7.078;2023-04-24T14:52:16;8.23;;;6.20;;
21550;SDS011;10936;49.836;7.078;2023-04-24T14:54:42;8.10;;;6.17;;
21550;SDS011;10936;49.836;7.078;2023-04-24T14:57:08;11.80;;;6.10;;
21550;SDS011;10936;49.836;7.078;2023-04-24T14:59:34;8.20;;;5.80;;
21550;SDS011;10936;49.836;7.078;2023-04-24T15:02:00;10.57;;;5.70;;
21550;SDS011;10936;49.836;7.078;2023-04-24T15:04:26;8.13;;;5.70;;
21550;SDS011;10936;49.836;7.078;2023-04-24T15:06:53;8.87;;;6.20;;
21550;SDS011;10936;49.836;7.078;2023-04-24T15:09:22;11.63;;;6.10;;
21550;SDS011;10936;49.836;7.078;2023-04-24T15:11:50;9.60;;;5.70;;
21550;SDS011;10936;49.836;7.078;2023-04-24T15:14:16;7.70;;;5.83;;
21550;SDS011;10936;49.836;7.078;2023-04-24T15:16:42;7.40;;;5.73;;
21550;SDS011;10936;49.836;7.078;2023-04-24T15:19:08;10.77;;;5.73;;
21550;SDS011;10936;49.836;7.078;2023-04-24T15:21:34;8.37;;;5.70;;
21550;SDS011;10936;49.836;7.078;2023-04-24T15:24:00;10.70;;;6.33;;
21550;SDS011;10936;49.836;7.078;2023-04-24T15:26:26;9.57;;;5.83;;
21550;SDS011;10936;49.836;7.078;2023-04-24T15:28:52;11.10;;;6.17;;
21550;SDS011;10936;49.836;7.078;2023-04-24T15:31:18;9.87;;;7.57;;
21550;SDS011;10936;49.836;7.078;2023-04-24T15:33:44;11.13;;;6.90;;
21550;SDS011;10936;49.836;7.078;2023-04-24T15:36:10;10.33;;;5.70;;
21550;SDS011;10936;49.836;7.078;2023-04-24T15:38:35;9.90;;;6.43;;
21550;SDS011;10936;49.836;7.078;2023-04-24T15:41:01;9.33;;;6.50;;
21550;SDS011;10936;49.836;7.078;2023-04-24T15:43:27;7.80;;;5.47;;
21550;SDS011;10936;49.836;7.078;2023-04-24T15:45:56;7.63;;;4.80;;
21550;SDS011;10936;49.836;7.078;2023-04-24T15:48:22;10.10;;;5.97;;
21550;SDS011;10936;49.836;7.078;2023-04-24T15:50:48;13.17;;;6.27;;
21550;SDS011;10936;49.836;7.078;2023-04-24T15:53:13;10.60;;;6.20;;
21550;SDS011;10936;49.836;7.078;2023-04-24T15:55:46;11.07;;;5.53;;
21550;SDS011;10936;49.836;7.078;2023-04-24T15:58:12;6.37;;;4.60;;
21550;SDS011;10936;49.836;7.078;2023-04-24T16:00:38;6.60;;;4.53;;
21550;SDS011;10936;49.836;7.078;2023-04-24T16:03:03;7.90;;;4.50;;
21550;SDS011;10936;49.836;7.078;2023-04-24T16:05:29;8.23;;;4.70;;
21550;SDS011;10936;49.836;7.078;2023-04-24T16:07:55;4.40;;;3.50;;
21550;SDS011;10936;49.836;7.078;2023-04-24T16:10:21;5.53;;;3.83;;
21550;SDS011;10936;49.836;7.078;2023-04-24T16:12:46;4.67;;;3.80;;
21550;SDS011;10936;49.836;7.078;2023-04-24T16:15:12;5.63;;;4.53;;
21550;SDS011;10936;49.836;7.078;2023-04-24T16:17:38;8.13;;;4.83;;
21550;SDS011;10936;49.836;7.078;2023-04-24T16:20:03;7.13;;;4.80;;
21550;SDS011;10936;49.836;7.078;2023-04-24T16:22:30;9.40;;;5.60;;
21550;SDS011;10936;49.836;7.078;2023-04-24T16:24:55;7.77;;;5.53;;
21550;SDS011;10936;49.836;7.078;2023-04-24T16:27:22;10.90;;;6.53;;
21550;SDS011;10936;49.836;7.078;2023-04-24T16:29:51;8.20;;;5.93;;
21550;SDS011;10936;49.836;7.078;2023-04-24T16:32:16;11.00;;;6.90;;
21550;SDS011;10936;49.836;7.078;2023-04-24T16:34:42;9.27;;;7.53;;
21550;SDS011;10936;49.836;7.078;2023-04-24T16:37:08;10.47;;;7.43;;
21550;SDS011;10936;49.836;7.078;2023-04-24T16:39:34;9.43;;;6.93;;
21550;SDS011;10936;49.836;7.078;2023-04-24T16:41:59;12.83;;;6.53;;
21550;SDS011;10936;49.836;7.078;2023-04-24T16:44:26;9.87;;;7.33;;
21550;SDS011;10936;49.836;7.078;2023-04-24T16:46:51;9.13;;;6.57;;
21550;SDS011;10936;49.836;7.078;2023-04-24T16:49:17;8.40;;;6.00;;
21550;SDS011;10936;49.836;7.078;2023-04-24T16:51:43;9.83;;;6.30;;
21550;SDS011;10936;49.836;7.078;2023-04-24T16:54:08;9.00;;;6.40;;
21550;SDS011;10936;49.836;7.078;2023-04-24T16:56:34;10.03;;;6.13;;
21550;SDS011;10936;49.836;7.078;2023-04-24T16:59:00;10.07;;;6.00;;
21550;SDS011;10936;49.836;7.078;2023-04-24T17:01:26;9.40;;;6.07;;
21550;SDS011;10936;49.836;7.078;2023-04-24T17:03:51;8.70;;;6.03;;
21550;SDS011;10936;49.836;7.078;2023-04-24T17:06:17;6.50;;;4.83;;
21550;SDS011;10936;49.836;7.078;2023-04-24T17:08:43;8.93;;;5.13;;
21550;SDS011;10936;49.836;7.078;2023-04-24T17:11:08;8.10;;;5.03;;
21550;SDS011;10936;49.836;7.078;2023-04-24T17:13:34;11.77;;;6.60;;
21550;SDS011;10936;49.836;7.078;2023-04-24T17:15:59;10.97;;;5.33;;
21550;SDS011;10936;49.836;7.078;2023-04-24T17:18:25;9.83;;;5.63;;
21550;SDS011;10936;49.836;7.078;2023-04-24T17:20:51;7.27;;;4.63;;
21550;SDS011;10936;49.836;7.078;2023-04-24T17:23:16;8.87;;;5.40;;
21550;SDS011;10936;49.836;7.078;2023-04-24T17:25:42;12.00;;;7.23;;
21550;SDS011;10936;49.836;7.078;2023-04-24T17:28:14;10.67;;;6.97;;
21550;SDS011;10936;49.836;7.078;2023-04-24T17:30:51;6.03;;;4.10;;
21550;SDS011;10936;49.836;7.078;2023-04-24T17:33:19;8.90;;;4.97;;
21550;SDS011;10936;49.836;7.078;2023-04-24T17:35:45;5.83;;;4.43;;
21550;SDS011;10936;49.836;7.078;2023-04-24T17:38:11;6.73;;;5.13;;
21550;SDS011;10936;49.836;7.078;2023-04-24T17:40:37;6.90;;;4.60;;
21550;SDS011;10936;49.836;7.078;2023-04-24T17:43:03;8.40;;;5.10;;
21550;SDS011;10936;49.836;7.078;2023-04-24T17:45:29;9.17;;;5.40;;
21550;SDS011;10936;49.836;7.078;2023-04-24T17:47:54;7.93;;;5.10;;
21550;SDS011;10936;49.836;7.078;2023-04-24T17:50:20;6.20;;;5.03;;
21550;SDS011;10936;49.836;7.078;2023-04-24T17:52:46;7.10;;;5.17;;
21550;SDS011;10936;49.836;7.078;2023-04-24T17:55:12;7.13;;;5.43;;
21550;SDS011;10936;49.836;7.078;2023-04-24T17:57:37;7.20;;;5.97;;
21550;SDS011;10936;49.836;7.078;2023-04-24T18:00:03;8.03;;;6.00;;
21550;SDS011;10936;49.836;7.078;2023-04-24T18:02:29;8.77;;;5.67;;
21550;SDS011;10936;49.836;7.078;2023-04-24T18:04:55;9.63;;;5.37;;
21550;SDS011;10936;49.836;7.078;2023-04-24T18:07:20;7.47;;;5.33;;
21550;SDS011;10936;49.836;7.078;2023-04-24T18:09:46;8.00;;;5.90;;
21550;SDS011;10936;49.836;7.078;2023-04-24T18:12:11;8.00;;;6.00;;
21550;SDS011;10936;49.836;7.078;2023-04-24T18:14:38;11.17;;;6.37;;
21550;SDS011;10936;49.836;7.078;2023-04-24T18:17:03;11.43;;;6.30;;
21550;SDS011;10936;49.836;7.078;2023-04-24T18:19:30;10.03;;;7.53;;
21550;SDS011;10936;49.836;7.078;2023-04-24T18:21:56;9.80;;;6.47;;
21550;SDS011;10936;49.836;7.078;2023-04-24T18:24:22;10.87;;;7.70;;
21550;SDS011;10936;49.836;7.078;2023-04-24T18:26:47;10.80;;;7.70;;
21550;SDS011;10936;49.836;7.078;2023-04-24T18:29:13;14.80;;;9.50;;
21550;SDS011;10936;49.836;7.078;2023-04-24T18:31:38;19.23;;;11.77;;
21550;SDS011;10936;49.836;7.078;2023-04-24T18:34:04;12.03;;;8.03;;
21550;SDS011;10936;49.836;7.078;2023-04-24T18:36:29;13.13;;;8.70;;
21550;SDS011;10936;49.836;7.078;2023-04-24T18:38:56;10.93;;;7.23;;
21550;SDS011;10936;49.836;7.078;2023-04-24T18:41:22;10.53;;;6.90;;
21550;SDS011;10936;49.836;7.078;2023-04-24T18:43:47;11.07;;;7.07;;
21550;SDS011;10936;49.836;7.078;2023-04-24T18:46:14;10.17;;;7.20;;
21550;SDS011;10936;49.836;7.078;2023-04-24T18:48:40;9.63;;;7.20;;
21550;SDS011;10936;49.836;7.078;2023-04-24T18:51:05;9.93;;;7.03;;
21550;SDS011;10936;49.836;7.078;2023-04-24T18:53:31;11.73;;;7.63;;
21550;SDS011;10936;49.836;7.078;2023-04-24T18:55:57;13.80;;;9.20;;
21550;SDS011;10936;49.836;7.078;2023-04-24T18:58:22;11.13;;;8.07;;
21550;SDS011;10936;49.836;7.078;2023-04-24T19:00:48;5.77;;;3.63;;
21550;SDS011;10936;49.836;7.078;2023-04-24T19:03:14;4.67;;;3.07;;
21550;SDS011;10936;49.836;7.078;2023-04-24T19:05:40;3.03;;;2.50;;
21550;SDS011;10936;49.836;7.078;2023-04-24T19:08:06;10.07;;;5.07;;
21550;SDS011;10936;49.836;7.078;2023-04-24T19:10:31;15.60;;;6.40;;
21550;SDS011;10936;49.836;7.078;2023-04-24T19:12:58;16.90;;;7.20;;
21550;SDS011;10936;49.836;7.078;2023-04-24T19:15:24;13.23;;;6.40;;
21550;SDS011;10936;49.836;7.078;2023-04-24T19:17:50;18.50;;;9.43;;
21550;SDS011;10936;49.836;7.078;2023-04-24T19:20:17;10.40;;;6.73;;
21550;SDS011;10936;49.836;7.078;2023-04-24T19:22:43;9.10;;;4.50;;
21550;SDS011;10936;49.836;7.078;2023-04-24T19:25:10;8.03;;;4.70;;
21550;SDS011;10936;49.836;7.078;2023-04-24T19:27:36;10.23;;;6.63;;
21550;SDS011;10936;49.836;7.078;2023-04-24T19:30:02;7.23;;;5.07;;
21550;SDS011;10936;49.836;7.078;2023-04-24T19:32:28;7.00;;;4.30;;
21550;SDS011;10936;49.836;7.078;2023-04-24T19:34:54;6.40;;;4.03;;
21550;SDS011;10936;49.836;7.078;2023-04-24T19:37:20;6.83;;;4.70;;
21550;SDS011;10936;49.836;7.078;2023-04-24T19:39:46;6.63;;;4.93;;
21550;SDS011;10936;49.836;7.078;2023-04-24T19:42:11;7.60;;;5.13;;
21550;SDS011;10936;49.836;7.078;2023-04-24T19:44:37;7.73;;;5.07;;
21550;SDS011;10936;49.836;7.078;2023-04-24T19:47:03;6.83;;;5.20;;
21550;SDS011;10936;49.836;7.078;2023-04-24T19:49:28;8.83;;;5.30;;
21550;SDS011;10936;49.836;7.078;2023-04-24T19:51:54;7.73;;;5.23;;
21550;SDS011;10936;49.836;7.078;2023-04-24T19:54:20;8.83;;;5.10;;